createdAt,value
2023-05-19T00:02:36.058Z,8.17
2023-05-19T00:05:22.183Z,8.29
2023-05-19T00:08:08.054Z,8.33
2023-05-19T00:10:54.016Z,8.03
2023-05-19T00:13:39.969Z,8.06
2023-05-19T00:16:25.911Z,8.45
2023-05-19T00:19:11.894Z,8.08
2023-05-19T00:21:57.900Z,8.63
2023-05-19T00:24:43.825Z,8.52
2023-05-19T00:27:29.710Z,8.29
2023-05-19T00:30:15.634Z,8.23
2023-05-19T00:33:01.701Z,7.75
2023-05-19T00:35:49.726Z,8.36
2023-05-19T00:38:35.605Z,7.93
2023-05-19T00:41:21.536Z,7.74
2023-05-19T00:44:07.571Z,8.16
2023-05-19T00:46:53.433Z,8.05
2023-05-19T00:49:39.702Z,7.98
2023-05-19T00:52:25.589Z,8.39
2023-05-19T00:55:11.456Z,7.72
2023-05-19T00:57:57.542Z,7.97
2023-05-19T01:00:43.492Z,7.88
2023-05-19T01:03:29.905Z,7.85
2023-05-19T01:06:16.218Z,8.14
2023-05-19T01:09:02.210Z,8.19
2023-05-19T01:11:48.124Z,8.14
2023-05-19T01:14:33.915Z,8.21
2023-05-19T01:17:19.900Z,7.76
2023-05-19T01:20:05.917Z,7.57
2023-05-19T01:22:51.844Z,7.92
2023-05-19T01:25:37.964Z,8.10
2023-05-19T01:28:23.975Z,8.28
2023-05-19T01:31:09.920Z,8.11
2023-05-19T01:33:55.827Z,7.74
2023-05-19T01:36:41.848Z,7.64
2023-05-19T01:39:27.796Z,8.06
2023-05-19T01:42:13.574Z,8.06
2023-05-19T01:44:59.329Z,8.13
2023-05-19T01:47:45.229Z,8.16
2023-05-19T01:50:31.670Z,7.94
2023-05-19T01:53:17.677Z,8.07
2023-05-19T01:56:03.594Z,8.12
2023-05-19T01:58:49.493Z,8.24
2023-05-19T02:01:35.315Z,8.36
2023-05-19T02:04:21.816Z,7.99
2023-05-19T02:07:08.082Z,7.98
2023-05-19T02:09:53.966Z,8.19
2023-05-19T02:12:39.915Z,7.91
2023-05-19T02:15:25.742Z,8.00
2023-05-19T02:18:11.769Z,8.13
2023-05-19T02:20:57.720Z,8.08
2023-05-19T02:23:43.616Z,8.41
2023-05-19T02:26:30.136Z,8.62
2023-05-19T02:29:15.884Z,8.08
2023-05-19T02:32:02.076Z,9.11
2023-05-19T02:34:48.248Z,8.63
2023-05-19T02:37:34.144Z,8.76
2023-05-19T02:40:20.084Z,8.25
2023-05-19T02:43:05.878Z,8.78
2023-05-19T02:45:51.755Z,8.44
2023-05-19T02:48:37.714Z,8.01
2023-05-19T02:51:23.620Z,8.62
2023-05-19T02:54:09.578Z,8.24
2023-05-19T02:56:55.504Z,8.30
2023-05-19T02:59:41.352Z,8.25
2023-05-19T03:02:27.260Z,7.78
2023-05-19T03:05:13.598Z,8.58
2023-05-19T03:07:59.506Z,8.34
2023-05-19T03:10:45.480Z,8.08
2023-05-19T03:13:31.325Z,8.60
2023-05-19T03:16:17.219Z,8.51
2023-05-19T03:19:03.604Z,8.02
2023-05-19T03:21:49.739Z,7.88
2023-05-19T03:24:35.777Z,8.22
2023-05-19T03:27:21.646Z,7.67
2023-05-19T03:30:07.640Z,7.47
2023-05-19T03:32:53.700Z,7.62
2023-05-19T03:35:39.875Z,7.93
2023-05-19T03:38:25.872Z,7.58
2023-05-19T03:41:11.910Z,7.98
2023-05-19T03:43:57.746Z,8.40
2023-05-19T03:46:43.583Z,7.92
2023-05-19T03:49:29.394Z,7.95
2023-05-19T03:52:15.358Z,8.06
2023-05-19T03:55:01.413Z,7.75
2023-05-19T03:57:47.244Z,8.10
2023-05-19T04:00:33.554Z,8.05
2023-05-19T04:03:20.203Z,7.83
2023-05-19T04:06:06.461Z,8.17
2023-05-19T04:08:52.496Z,8.08
2023-05-19T04:11:38.522Z,8.12
2023-05-19T04:14:24.472Z,8.42
2023-05-19T04:17:10.466Z,8.20
2023-05-19T04:19:56.394Z,8.06
2023-05-19T04:22:42.357Z,8.04
2023-05-19T04:25:28.405Z,8.14
2023-05-19T04:28:14.407Z,7.70
2023-05-19T04:31:00.470Z,7.84
2023-05-19T04:33:46.556Z,8.03
2023-05-19T04:36:32.405Z,8.04
2023-05-19T04:39:18.353Z,8.03
2023-05-19T04:42:04.198Z,7.94
2023-05-19T04:44:50.183Z,8.16
2023-05-19T04:47:36.157Z,8.18
2023-05-19T04:50:22.501Z,8.27
2023-05-19T04:53:08.447Z,8.29
2023-05-19T04:55:54.301Z,8.28
2023-05-19T04:58:41.887Z,8.38
2023-05-19T05:01:28.435Z,8.25
2023-05-19T05:04:14.724Z,8.32
2023-05-19T05:07:00.631Z,8.73
2023-05-19T05:09:46.578Z,8.64
2023-05-19T05:12:32.431Z,8.57
2023-05-19T05:15:18.867Z,8.93
2023-05-19T05:18:04.895Z,8.89
2023-05-19T05:20:51.090Z,8.38
2023-05-19T05:23:36.986Z,8.76
2023-05-19T05:26:23.083Z,8.43
2023-05-19T05:29:08.830Z,8.68
2023-05-19T05:31:54.822Z,8.37
2023-05-19T05:34:40.485Z,8.59
2023-05-19T05:37:26.435Z,8.62
2023-05-19T05:40:12.439Z,8.77
2023-05-19T05:42:58.780Z,8.62
2023-05-19T05:45:45.335Z,8.64
2023-05-19T05:48:31.943Z,8.67
2023-05-19T05:51:17.754Z,8.82
2023-05-19T05:54:03.709Z,8.84
2023-05-19T05:56:49.829Z,9.00
2023-05-19T05:59:35.817Z,8.43
2023-05-19T06:02:21.965Z,8.51
2023-05-19T06:05:08.115Z,8.80
2023-05-19T06:07:54.288Z,8.81
2023-05-19T06:10:40.766Z,9.14
2023-05-19T06:13:26.555Z,9.32
2023-05-19T06:16:12.634Z,9.25
2023-05-19T06:18:59.119Z,9.24
2023-05-19T06:21:45.081Z,9.64
2023-05-19T06:24:31.451Z,9.64
2023-05-19T06:27:17.413Z,9.64
2023-05-19T06:30:03.333Z,8.99
2023-05-19T06:32:49.427Z,9.17
2023-05-19T06:35:35.267Z,9.18
2023-05-19T06:38:21.127Z,9.09
2023-05-19T06:41:07.126Z,9.57
2023-05-19T06:43:53.101Z,9.32
2023-05-19T06:46:39.114Z,9.46
2023-05-19T06:49:25.281Z,9.74
2023-05-19T06:52:11.186Z,9.24
2023-05-19T06:54:57.578Z,9.42
2023-05-19T06:57:43.295Z,9.69
2023-05-19T07:00:29.301Z,9.87
2023-05-19T07:03:15.412Z,9.89
2023-05-19T07:06:01.746Z,10.10
2023-05-19T07:08:47.900Z,10.45
2023-05-19T07:11:34.529Z,10.09
2023-05-19T07:14:20.634Z,9.99
2023-05-19T07:17:06.888Z,10.52
2023-05-19T07:19:52.906Z,10.31
2023-05-19T07:22:38.802Z,10.84
2023-05-19T07:25:24.741Z,10.13
2023-05-19T07:28:10.627Z,9.96
2023-05-19T07:30:56.644Z,10.10
2023-05-19T07:33:42.719Z,10.70
2023-05-19T07:36:28.658Z,11.07
2023-05-19T07:39:14.753Z,10.51
2023-05-19T07:42:00.747Z,10.68
2023-05-19T07:44:46.838Z,10.23
2023-05-19T07:47:33.038Z,10.96
2023-05-19T07:50:19.237Z,10.03
2023-05-19T07:53:05.411Z,10.30
2023-05-19T07:55:51.670Z,9.75
2023-05-19T07:58:37.498Z,9.77
2023-05-19T08:01:23.487Z,9.90
2023-05-19T08:04:11.847Z,10.02
2023-05-19T08:06:58.931Z,10.11
2023-05-19T08:09:44.960Z,10.14
2023-05-19T08:12:30.913Z,10.14
2023-05-19T08:15:16.814Z,10.59
2023-05-19T08:18:02.898Z,9.37
2023-05-19T08:20:48.908Z,9.43
2023-05-19T08:23:35.091Z,9.54
2023-05-19T08:26:21.100Z,9.61
2023-05-19T08:29:07.410Z,9.80
2023-05-19T08:31:53.476Z,9.42
2023-05-19T08:34:39.947Z,9.49
2023-05-19T08:37:25.933Z,9.53
2023-05-19T08:40:11.823Z,10.04
2023-05-19T08:42:57.785Z,9.45
2023-05-19T08:45:43.669Z,9.52
2023-05-19T08:48:29.649Z,9.25
2023-05-19T08:51:15.498Z,9.21
2023-05-19T08:54:01.439Z,8.75
2023-05-19T08:56:47.382Z,9.00
2023-05-19T08:59:33.319Z,8.86
2023-05-19T09:02:21.437Z,9.65
2023-05-19T09:05:07.736Z,9.61
2023-05-19T09:07:53.850Z,9.12
2023-05-19T09:10:39.836Z,9.26
2023-05-19T09:13:25.892Z,9.25
2023-05-19T09:16:11.998Z,9.16
2023-05-19T09:18:58.256Z,9.39
2023-05-19T09:21:44.670Z,9.53
2023-05-19T09:24:30.602Z,9.05
2023-05-19T09:27:16.488Z,9.18
2023-05-19T09:30:02.411Z,9.36
2023-05-19T09:32:48.494Z,9.15
2023-05-19T09:35:34.467Z,9.24
2023-05-19T09:38:20.556Z,8.75
2023-05-19T09:41:06.507Z,9.29
2023-05-19T09:43:52.435Z,9.56
2023-05-19T09:46:38.482Z,9.85
2023-05-19T09:49:24.751Z,9.83
2023-05-19T09:52:11.219Z,9.90
2023-05-19T09:54:58.620Z,9.66
2023-05-19T09:57:44.534Z,9.85
2023-05-19T10:00:30.451Z,10.13
2023-05-19T10:03:16.886Z,9.88
2023-05-19T10:06:03.232Z,10.47
2023-05-19T10:08:49.011Z,10.36
2023-05-19T10:11:37.061Z,10.17
2023-05-19T10:14:23.109Z,9.49
2023-05-19T10:17:08.952Z,9.62
2023-05-19T10:19:55.019Z,9.39
2023-05-19T10:22:40.865Z,9.48
2023-05-19T10:25:26.729Z,9.63
2023-05-19T10:28:12.680Z,9.82
2023-05-19T10:30:58.655Z,9.60
2023-05-19T10:33:44.719Z,9.72
2023-05-19T10:36:30.778Z,9.43
2023-05-19T10:39:16.691Z,9.14
2023-05-19T10:42:02.660Z,9.59
2023-05-19T10:44:48.541Z,9.31
2023-05-19T10:47:34.490Z,9.54
2023-05-19T10:50:20.698Z,9.46
2023-05-19T10:53:06.876Z,9.38
2023-05-19T10:55:52.956Z,11.08
2023-05-19T10:58:38.855Z,14.41
2023-05-19T11:01:24.799Z,9.44
2023-05-19T11:04:12.867Z,9.61
2023-05-19T11:06:58.867Z,9.33
2023-05-19T11:09:44.752Z,9.40
2023-05-19T11:12:30.752Z,9.23
2023-05-19T11:15:16.789Z,9.85
2023-05-19T11:18:02.739Z,9.23
2023-05-19T11:20:48.825Z,9.42
2023-05-19T11:23:35.576Z,9.36
2023-05-19T11:26:21.980Z,8.97
2023-05-19T11:29:08.051Z,9.10
2023-05-19T11:31:53.988Z,8.84
2023-05-19T11:34:40.072Z,8.95
2023-05-19T11:37:26.040Z,8.69
2023-05-19T11:40:11.968Z,9.27
2023-05-19T11:42:58.006Z,9.37
2023-05-19T11:45:46.078Z,9.19
2023-05-19T11:48:32.267Z,9.28
2023-05-19T11:51:18.256Z,9.01
2023-05-19T11:54:04.122Z,8.67
2023-05-19T11:56:50.061Z,8.54
2023-05-19T11:59:36.484Z,8.78
2023-05-19T12:02:22.265Z,8.22
2023-05-19T12:05:08.157Z,7.84
2023-05-19T12:07:54.113Z,7.54
2023-05-19T12:10:40.125Z,7.50
2023-05-19T12:13:26.019Z,7.10
2023-05-19T12:16:11.975Z,6.64
2023-05-19T12:18:57.957Z,6.21
2023-05-19T12:21:43.938Z,5.75
2023-05-19T12:24:29.870Z,5.53
2023-05-19T12:27:15.826Z,5.22
2023-05-19T12:30:01.859Z,5.73
2023-05-19T12:32:47.787Z,5.48
2023-05-19T12:35:33.914Z,6.02
2023-05-19T12:38:20.067Z,5.78
2023-05-19T12:41:05.966Z,6.05
2023-05-19T12:43:51.957Z,6.50
2023-05-19T12:46:37.840Z,7.12
2023-05-19T12:49:23.934Z,6.98
2023-05-19T12:52:12.760Z,6.29
2023-05-19T12:54:59.401Z,5.77
2023-05-19T12:57:45.299Z,5.99
2023-05-19T13:00:31.496Z,6.34
2023-05-19T13:03:17.710Z,5.96
2023-05-19T13:06:04.150Z,5.71
2023-05-19T13:08:49.953Z,5.60
2023-05-19T13:11:35.804Z,6.35
2023-05-19T13:14:21.840Z,5.92
2023-05-19T13:17:07.757Z,5.53
2023-05-19T13:19:53.853Z,5.24
2023-05-19T13:22:40.099Z,6.11
2023-05-19T13:25:25.847Z,6.40
2023-05-19T13:28:11.908Z,6.43
2023-05-19T13:30:57.740Z,5.99
2023-05-19T13:33:43.768Z,6.69
2023-05-19T13:36:29.814Z,6.61
2023-05-19T13:39:16.010Z,6.44
2023-05-19T13:42:02.088Z,5.86
2023-05-19T13:44:48.092Z,6.06
2023-05-19T13:47:33.980Z,6.39
2023-05-19T13:50:20.093Z,6.15
2023-05-19T13:53:06.053Z,6.46
2023-05-19T13:55:52.057Z,6.60
2023-05-19T13:58:38.014Z,7.27
2023-05-19T14:01:23.895Z,7.61
2023-05-19T14:04:10.238Z,7.78
2023-05-19T14:06:56.692Z,6.62
2023-05-19T14:09:42.569Z,6.86
2023-05-19T14:12:39.381Z,6.94
2023-05-19T14:15:33.332Z,6.75
2023-05-19T14:18:19.235Z,6.01
2023-05-19T14:21:05.137Z,6.41
2023-05-19T14:23:51.252Z,6.28
2023-05-19T14:26:37.155Z,6.37
2023-05-19T14:29:23.138Z,6.43
2023-05-19T14:32:09.005Z,6.37
2023-05-19T14:34:55.023Z,6.54
2023-05-19T14:37:40.926Z,6.69
2023-05-19T14:40:26.800Z,6.73
2023-05-19T14:43:13.837Z,6.61
2023-05-19T14:46:00.142Z,6.58
2023-05-19T14:48:45.882Z,6.75
2023-05-19T14:51:31.803Z,7.31
2023-05-19T14:54:17.868Z,7.32
2023-05-19T14:57:03.905Z,7.96
2023-05-19T14:59:49.721Z,8.39
2023-05-19T15:02:35.583Z,8.50
2023-05-19T15:05:21.554Z,8.52
2023-05-19T15:08:07.526Z,8.32
2023-05-19T15:10:53.361Z,9.03
2023-05-19T15:13:39.342Z,8.69
2023-05-19T15:16:25.308Z,9.22
2023-05-19T15:19:11.368Z,8.86
2023-05-19T15:21:57.293Z,9.40
2023-05-19T15:24:43.135Z,9.09
2023-05-19T15:27:29.305Z,9.39
2023-05-19T15:30:15.398Z,9.22
2023-05-19T15:33:01.258Z,9.78
2023-05-19T15:35:47.332Z,9.48
2023-05-19T15:38:33.222Z,10.24
2023-05-19T15:41:19.147Z,9.95
2023-05-19T15:44:05.250Z,9.57
2023-05-19T15:46:51.336Z,9.85
2023-05-19T15:49:37.585Z,10.21
2023-05-19T15:52:23.508Z,9.89
2023-05-19T15:55:09.396Z,10.12
2023-05-19T15:57:55.476Z,10.68
2023-05-19T16:00:41.350Z,9.71
2023-05-19T16:03:27.424Z,10.40
2023-05-19T16:06:13.744Z,11.11
2023-05-19T16:09:01.715Z,10.91
2023-05-19T16:11:47.643Z,10.15
2023-05-19T16:14:33.692Z,10.40
2023-05-19T16:17:19.553Z,11.16
2023-05-19T16:20:05.544Z,10.69
2023-05-19T16:22:51.501Z,11.46
2023-05-19T16:25:37.718Z,10.52
2023-05-19T16:28:25.010Z,10.86
2023-05-19T16:31:11.621Z,10.57
2023-05-19T16:33:57.517Z,10.34
2023-05-19T16:36:43.493Z,10.50
2023-05-19T16:39:29.501Z,10.52
2023-05-19T16:42:15.470Z,11.23
2023-05-19T16:45:01.437Z,11.51
2023-05-19T16:47:47.287Z,10.83
2023-05-19T16:50:33.352Z,11.32
2023-05-19T16:53:19.553Z,10.65
2023-05-19T16:56:07.470Z,11.10
2023-05-19T16:58:53.405Z,11.17
2023-05-19T17:01:39.568Z,11.18
2023-05-19T17:04:26.199Z,10.85
2023-05-19T17:07:13.285Z,10.77
2023-05-19T17:09:59.187Z,10.10
2023-05-19T17:12:45.078Z,10.61
2023-05-19T17:15:31.017Z,10.52
2023-05-19T17:18:16.846Z,9.98
2023-05-19T17:21:03.047Z,9.92
2023-05-19T17:23:49.355Z,10.50
2023-05-19T17:26:35.181Z,10.44
2023-05-19T17:29:21.073Z,10.61
2023-05-19T17:32:07.050Z,10.36
2023-05-19T17:34:52.966Z,10.37
2023-05-19T17:37:38.912Z,10.41
2023-05-19T17:40:24.857Z,10.27
2023-05-19T17:43:10.776Z,10.26
2023-05-19T17:45:58.730Z,10.32
2023-05-19T17:48:45.774Z,10.00
2023-05-19T17:51:31.658Z,10.95
2023-05-19T17:54:17.548Z,10.33
2023-05-19T17:57:03.547Z,10.19
2023-05-19T17:59:49.905Z,10.20
2023-05-19T18:02:35.960Z,10.79
2023-05-19T18:05:24.246Z,10.78
2023-05-19T18:08:10.301Z,10.80
2023-05-19T18:10:56.328Z,10.74
2023-05-19T18:13:42.303Z,11.31
2023-05-19T18:16:28.406Z,10.62
2023-05-19T18:19:14.683Z,11.04
2023-05-19T18:22:00.824Z,11.55
2023-05-19T18:24:46.876Z,11.73
2023-05-19T18:27:32.770Z,11.13
2023-05-19T18:30:18.756Z,11.17
2023-05-19T18:33:04.768Z,11.54
2023-05-19T18:35:50.944Z,11.81
2023-05-19T18:38:36.989Z,11.05
2023-05-19T18:41:23.028Z,11.65
2023-05-19T18:44:08.967Z,11.99
2023-05-19T18:46:54.838Z,11.87
2023-05-19T18:49:40.977Z,11.44
2023-05-19T18:52:26.922Z,12.25
2023-05-19T18:55:13.247Z,12.37
2023-05-19T18:57:59.023Z,12.10
2023-05-19T19:00:44.912Z,12.28
2023-05-19T19:03:31.232Z,12.45
2023-05-19T19:06:17.107Z,12.15
2023-05-19T19:09:03.062Z,12.66
2023-05-19T19:11:48.999Z,11.98
2023-05-19T19:14:34.915Z,13.25
2023-05-19T19:17:20.873Z,12.94
2023-05-19T19:20:07.174Z,13.07
2023-05-19T19:22:53.154Z,13.31
2023-05-19T19:25:39.183Z,13.54
2023-05-19T19:28:25.173Z,14.11
2023-05-19T19:31:11.243Z,13.71
2023-05-19T19:33:57.253Z,14.08
2023-05-19T19:36:43.181Z,14.05
2023-05-19T19:39:29.105Z,14.80
2023-05-19T19:42:14.883Z,14.28
2023-05-19T19:45:00.938Z,14.77
2023-05-19T19:47:47.040Z,15.29
2023-05-19T19:50:33.498Z,14.75
2023-05-19T19:53:19.794Z,15.39
2023-05-19T19:56:05.835Z,14.63
2023-05-19T19:58:51.782Z,14.79
2023-05-19T20:01:37.871Z,15.34
2023-05-19T20:04:24.114Z,15.15
2023-05-19T20:07:10.512Z,14.86
2023-05-19T20:09:56.685Z,14.95
2023-05-19T20:12:42.489Z,14.93
2023-05-19T20:15:28.501Z,14.41
2023-05-19T20:18:14.501Z,14.59
2023-05-19T20:21:00.410Z,14.62
2023-05-19T20:23:46.443Z,15.19
2023-05-19T20:26:32.406Z,14.57
2023-05-19T20:29:18.260Z,15.03
2023-05-19T20:32:04.201Z,15.01
2023-05-19T20:34:50.068Z,15.00
2023-05-19T20:37:36.413Z,15.59
2023-05-19T20:40:22.238Z,15.80
2023-05-19T20:43:08.169Z,15.04
2023-05-19T20:45:54.313Z,16.04
2023-05-19T20:48:42.569Z,15.55
2023-05-19T20:51:28.493Z,15.66
2023-05-19T20:54:14.354Z,15.56
2023-05-19T20:57:00.294Z,16.04
2023-05-19T20:59:46.253Z,15.09
2023-05-19T21:02:32.262Z,15.65
2023-05-19T21:05:18.344Z,16.08
2023-05-19T21:08:04.386Z,15.81
2023-05-19T21:10:50.345Z,15.68
2023-05-19T21:13:36.395Z,15.95
2023-05-19T21:16:22.330Z,15.53
2023-05-19T21:19:08.257Z,15.66
2023-05-19T21:21:54.251Z,15.80
2023-05-19T21:24:40.154Z,15.81
2023-05-19T21:27:25.989Z,15.87
2023-05-19T21:30:11.953Z,16.30
2023-05-19T21:32:57.836Z,16.63
2023-05-19T21:35:44.050Z,16.49
2023-05-19T21:38:30.104Z,17.11
2023-05-19T21:41:15.858Z,16.96
2023-05-19T21:44:01.824Z,16.79
2023-05-19T21:46:47.825Z,17.83
2023-05-19T21:49:33.797Z,17.23
2023-05-19T21:52:19.864Z,17.56
2023-05-19T21:55:05.833Z,17.06
2023-05-19T21:57:51.865Z,17.59
2023-05-19T22:00:37.773Z,17.23
2023-05-19T22:03:23.811Z,17.41
2023-05-19T22:06:10.100Z,17.33
2023-05-19T22:08:56.148Z,17.25
2023-05-19T22:11:41.941Z,16.09
2023-05-19T22:14:27.979Z,16.86
2023-05-19T22:17:13.791Z,15.93
2023-05-19T22:19:59.738Z,16.01
2023-05-19T22:22:45.710Z,16.38
2023-05-19T22:25:31.680Z,16.39
2023-05-19T22:28:17.689Z,16.72
2023-05-19T22:31:03.841Z,17.03
2023-05-19T22:33:49.758Z,16.74
2023-05-19T22:36:36.047Z,17.41
2023-05-19T22:39:22.083Z,17.43
2023-05-19T22:42:07.962Z,17.41
2023-05-19T22:44:53.933Z,17.27
2023-05-19T22:47:39.779Z,17.05
2023-05-19T22:50:25.767Z,16.75
2023-05-19T22:53:11.738Z,16.99
2023-05-19T22:55:57.634Z,17.40
2023-05-19T22:58:43.573Z,16.81
2023-05-19T23:01:29.478Z,17.86
2023-05-19T23:04:15.425Z,17.80
2023-05-19T23:07:01.650Z,17.99
2023-05-19T23:09:47.362Z,18.07
2023-05-19T23:12:33.380Z,18.01
2023-05-19T23:15:19.449Z,18.43
2023-05-19T23:18:05.423Z,18.79
2023-05-19T23:20:51.457Z,18.30
2023-05-19T23:23:37.451Z,18.51
2023-05-19T23:26:23.433Z,18.26
2023-05-19T23:29:09.386Z,18.12
2023-05-19T23:31:55.303Z,18.80
2023-05-19T23:34:41.583Z,18.38
2023-05-19T23:37:27.622Z,18.42
2023-05-19T23:40:13.552Z,18.24
2023-05-19T23:42:59.601Z,18.33
2023-05-19T23:45:45.539Z,18.61
2023-05-19T23:48:31.577Z,18.15
2023-05-19T23:51:17.597Z,18.15
2023-05-19T23:54:03.456Z,18.30
2023-05-19T23:56:49.242Z,18.32
2023-05-19T23:59:35.196Z,18.27
